Portada
METAR-TAF:

METAR-TAF

Aeroports :

Aeroport de Gran Canària

Gran Canària, Espanya

latitud: 27-56N, longitud: 015-23W, altitud: 23 m

Observació

L'informe es va fer fa 35 minuts, a les 00:00 UTC
Vent 20 kt del Nord
Temperatura 23°C
Humitat 73%
Pressió 1020 hPa
Visibilitat 10 km o més
Cel ennuvolat a una alçada de 2500 ft

METAR: GCLP 160000Z 01020KT 9999 BKN025 23/18 Q1020 NOSIG

Hora: 01:35 (00:35 UTC)

Pronòstic

L'informe es va fer fa 4 hores i 35 minuts, a les 20:00 UTC
Pronòstic vàlid del 15 a les 21 UTC al 16 a les 21 UTC
Vent 22 kt del Nord
Visibilitat 10 km o més
Núvols disperses a una alçada de 2000 ft
Probabilitat 30% :
Temporalment
l' 15 a les 21 UTC al 16 a les 02 UTC
Vent 24 kt del Nord amb ràfegues de 34 kt

TAF: GCLP 152000Z 1521/1621 36022KT 9999 SCT020 TX26/1614Z TN21/1605Z PROB30 TEMPO 1521/1602 01024G34KT

Observacions i pronòstics meteorològics de més de 4000 aeroports (METAR i TAF).

Les estacions disponibles són els punts grocs i vermells al mapa.

Posi el ratolí al punt desitjat per veure el nom de l'estació.

Feu clic per veure les observacions i els pronòstics meteorològics.

Per canviar el mapa: feu clic els botons verds amb una creu de color negre per apropar; al botó verd amb un guió per allunyar la imatge; o en les fletxes verdes per a mapes adjacents.


METAR-TAF: